Terminal Aerodrome Forecast
Issued by NWS Missoula, MT

Home | Current Version | Previous Version | Text Only | Print | Product List | Glossary On
Versions: 1 2 3 4 5 6 7 8 9 10 11 12 13 14 15 16 17 18 19
000
FTUS45 KMSO 221720
TAFGPI
TAF
KGPI 221720Z 2218/2318 23006KT P6SM VCSH BKN030 OVC050
     FM222000 17005KT P6SM -SHRA SCT030 BKN050
     FM231000 19012KT P6SM -SHRA BKN050 OVC070=

USA.gov is the U.S. government's official web portal to all federal, state and local government web resources and services.